Harkeyville, Texas
Current Conditions -  °F | °C
As of 12:35 PM on Sunday 21 Dec 2014 (Local Time) from KAQO Reporting Station
Overcast Overcast  
Wind Chill: 54°   Ceiling: 1600
Heat Index: 54°   Visibility: 10mi
Dew Point: 48°   Wind: 9mph
Humidity: 82%   Direction: 230°SW
Pressure: 30.03"   Gusts: NA
Location:  31.0718°N, 98.8001°W
Report Text: KAQO 211835Z AUTO 23008KT 10SM OVC016 12/09 A3003 RMK AO2
Loading
Personal Weather Stations






























Interactive Weather Map New forecast layout! Learn more

10-Day Weather Forecast

Advertisements
Track Severe Weather on mobile